sensor_id;sensor_type;location;lat;lon;timestamp;P1;durP1;ratioP1;P2;durP2;ratioP2
51332;SDS011;37417;48.118;11.734;2022-10-16T00:00:57;1.10;;;0.82;;
51332;SDS011;37417;48.118;11.734;2022-10-16T00:03:43;0.95;;;0.77;;
51332;SDS011;37417;48.118;11.734;2022-10-16T00:06:29;0.82;;;0.82;;
51332;SDS011;37417;48.118;11.734;2022-10-16T00:09:15;4.03;;;0.98;;
51332;SDS011;37417;48.118;11.734;2022-10-16T00:12:00;4.45;;;1.33;;
51332;SDS011;37417;48.118;11.734;2022-10-16T00:14:46;1.15;;;0.90;;
51332;SDS011;37417;48.118;11.734;2022-10-16T00:17:32;3.70;;;1.08;;
51332;SDS011;37417;48.118;11.734;2022-10-16T00:20:17;2.05;;;0.80;;
51332;SDS011;37417;48.118;11.734;2022-10-16T00:23:03;2.05;;;1.20;;
51332;SDS011;37417;48.118;11.734;2022-10-16T00:26:00;1.02;;;0.60;;
51332;SDS011;37417;48.118;11.734;2022-10-16T00:28:47;1.23;;;0.90;;
51332;SDS011;37417;48.118;11.734;2022-10-16T00:31:32;1.65;;;0.80;;
51332;SDS011;37417;48.118;11.734;2022-10-16T00:34:18;0.73;;;0.73;;
51332;SDS011;37417;48.118;11.734;2022-10-16T00:37:04;1.00;;;0.90;;
51332;SDS011;37417;48.118;11.734;2022-10-16T00:39:49;1.65;;;0.98;;
51332;SDS011;37417;48.118;11.734;2022-10-16T00:42:35;1.25;;;0.95;;
51332;SDS011;37417;48.118;11.734;2022-10-16T00:45:20;1.65;;;0.82;;
51332;SDS011;37417;48.118;11.734;2022-10-16T00:48:06;3.47;;;0.80;;
51332;SDS011;37417;48.118;11.734;2022-10-16T00:50:55;3.28;;;0.93;;
51332;SDS011;37417;48.118;11.734;2022-10-16T00:53:41;0.68;;;0.63;;
51332;SDS011;37417;48.118;11.734;2022-10-16T00:56:27;2.25;;;0.93;;
51332;SDS011;37417;48.118;11.734;2022-10-16T00:59:18;2.47;;;0.75;;
51332;SDS011;37417;48.118;11.734;2022-10-16T01:02:05;4.20;;;1.17;;
51332;SDS011;37417;48.118;11.734;2022-10-16T01:04:51;5.25;;;1.27;;
51332;SDS011;37417;48.118;11.734;2022-10-16T01:07:41;4.93;;;0.90;;
51332;SDS011;37417;48.118;11.734;2022-10-16T01:10:44;2.58;;;0.90;;
51332;SDS011;37417;48.118;11.734;2022-10-16T01:13:35;6.18;;;0.82;;
51332;SDS011;37417;48.118;11.734;2022-10-16T01:16:25;1.63;;;0.65;;
51332;SDS011;37417;48.118;11.734;2022-10-16T01:19:17;6.43;;;0.70;;
51332;SDS011;37417;48.118;11.734;2022-10-16T01:22:05;3.28;;;0.65;;
51332;SDS011;37417;48.118;11.734;2022-10-16T01:24:51;3.05;;;0.90;;
51332;SDS011;37417;48.118;11.734;2022-10-16T01:27:40;3.15;;;0.70;;
51332;SDS011;37417;48.118;11.734;2022-10-16T01:30:28;2.30;;;0.77;;
51332;SDS011;37417;48.118;11.734;2022-10-16T01:33:20;4.82;;;0.75;;
51332;SDS011;37417;48.118;11.734;2022-10-16T01:36:08;2.97;;;0.88;;
51332;SDS011;37417;48.118;11.734;2022-10-16T01:38:55;5.03;;;1.23;;
51332;SDS011;37417;48.118;11.734;2022-10-16T01:41:45;0.70;;;0.70;;
51332;SDS011;37417;48.118;11.734;2022-10-16T01:44:32;4.22;;;0.77;;
51332;SDS011;37417;48.118;11.734;2022-10-16T01:47:19;3.33;;;0.88;;
51332;SDS011;37417;48.118;11.734;2022-10-16T01:50:07;1.08;;;0.80;;
51332;SDS011;37417;48.118;11.734;2022-10-16T01:52:53;1.05;;;0.82;;
51332;SDS011;37417;48.118;11.734;2022-10-16T01:55:41;0.68;;;0.60;;
51332;SDS011;37417;48.118;11.734;2022-10-16T01:58:30;1.20;;;0.90;;
51332;SDS011;37417;48.118;11.734;2022-10-16T02:01:20;1.90;;;0.98;;
51332;SDS011;37417;48.118;11.734;2022-10-16T02:04:17;2.88;;;0.88;;
51332;SDS011;37417;48.118;11.734;2022-10-16T02:07:04;1.65;;;0.80;;
51332;SDS011;37417;48.118;11.734;2022-10-16T02:09:49;1.58;;;0.90;;
51332;SDS011;37417;48.118;11.734;2022-10-16T02:12:36;2.42;;;0.73;;
51332;SDS011;37417;48.118;11.734;2022-10-16T02:15:24;1.17;;;0.73;;
51332;SDS011;37417;48.118;11.734;2022-10-16T02:18:10;5.00;;;1.05;;
51332;SDS011;37417;48.118;11.734;2022-10-16T02:21:00;3.58;;;0.93;;
51332;SDS011;37417;48.118;11.734;2022-10-16T02:23:51;5.57;;;0.85;;
51332;SDS011;37417;48.118;11.734;2022-10-16T02:29:31;1.73;;;0.67;;
51332;SDS011;37417;48.118;11.734;2022-10-16T02:32:19;3.88;;;0.80;;
51332;SDS011;37417;48.118;11.734;2022-10-16T02:35:06;2.63;;;0.93;;
51332;SDS011;37417;48.118;11.734;2022-10-16T02:37:52;1.00;;;0.90;;
51332;SDS011;37417;48.118;11.734;2022-10-16T02:40:38;0.68;;;0.63;;
51332;SDS011;37417;48.118;11.734;2022-10-16T02:43:24;1.00;;;0.82;;
51332;SDS011;37417;48.118;11.734;2022-10-16T02:46:10;6.20;;;0.80;;
51332;SDS011;37417;48.118;11.734;2022-10-16T02:48:55;1.33;;;0.80;;
51332;SDS011;37417;48.118;11.734;2022-10-16T02:51:41;1.20;;;1.00;;
51332;SDS011;37417;48.118;11.734;2022-10-16T02:54:26;0.82;;;0.70;;
51332;SDS011;37417;48.118;11.734;2022-10-16T02:57:12;0.98;;;0.75;;
51332;SDS011;37417;48.118;11.734;2022-10-16T02:59:58;4.82;;;0.82;;
51332;SDS011;37417;48.118;11.734;2022-10-16T03:02:43;0.93;;;0.73;;
51332;SDS011;37417;48.118;11.734;2022-10-16T03:05:29;1.27;;;0.90;;
51332;SDS011;37417;48.118;11.734;2022-10-16T03:08:14;1.35;;;0.80;;
51332;SDS011;37417;48.118;11.734;2022-10-16T03:11:00;0.60;;;0.60;;
51332;SDS011;37417;48.118;11.734;2022-10-16T03:13:46;1.25;;;0.93;;
51332;SDS011;37417;48.118;11.734;2022-10-16T03:16:31;1.90;;;0.60;;
51332;SDS011;37417;48.118;11.734;2022-10-16T03:19:17;1.95;;;0.68;;
51332;SDS011;37417;48.118;11.734;2022-10-16T03:22:03;1.05;;;0.80;;
51332;SDS011;37417;48.118;11.734;2022-10-16T03:24:48;0.82;;;0.82;;
51332;SDS011;37417;48.118;11.734;2022-10-16T03:27:34;0.68;;;0.60;;
51332;SDS011;37417;48.118;11.734;2022-10-16T03:30:19;5.25;;;1.02;;
51332;SDS011;37417;48.118;11.734;2022-10-16T03:33:05;6.97;;;0.80;;
51332;SDS011;37417;48.118;11.734;2022-10-16T03:35:51;8.23;;;1.30;;
51332;SDS011;37417;48.118;11.734;2022-10-16T03:38:38;1.85;;;0.70;;
51332;SDS011;37417;48.118;11.734;2022-10-16T03:41:23;1.90;;;1.00;;
51332;SDS011;37417;48.118;11.734;2022-10-16T03:44:09;1.15;;;0.70;;
51332;SDS011;37417;48.118;11.734;2022-10-16T03:46:55;1.17;;;1.08;;
51332;SDS011;37417;48.118;11.734;2022-10-16T03:49:40;0.93;;;0.82;;
51332;SDS011;37417;48.118;11.734;2022-10-16T03:52:26;1.20;;;0.70;;
51332;SDS011;37417;48.118;11.734;2022-10-16T03:55:11;1.98;;;0.80;;
51332;SDS011;37417;48.118;11.734;2022-10-16T03:57:57;1.17;;;0.88;;
51332;SDS011;37417;48.118;11.734;2022-10-16T04:00:43;0.88;;;0.70;;
51332;SDS011;37417;48.118;11.734;2022-10-16T04:03:28;5.88;;;0.93;;
51332;SDS011;37417;48.118;11.734;2022-10-16T04:06:14;1.02;;;0.68;;
51332;SDS011;37417;48.118;11.734;2022-10-16T04:08:59;3.10;;;1.10;;
51332;SDS011;37417;48.118;11.734;2022-10-16T04:11:45;0.98;;;0.82;;
51332;SDS011;37417;48.118;11.734;2022-10-16T04:14:30;1.67;;;0.93;;
51332;SDS011;37417;48.118;11.734;2022-10-16T04:17:16;2.17;;;0.82;;
51332;SDS011;37417;48.118;11.734;2022-10-16T04:20:02;1.30;;;1.10;;
51332;SDS011;37417;48.118;11.734;2022-10-16T04:22:48;1.10;;;1.00;;
51332;SDS011;37417;48.118;11.734;2022-10-16T04:25:33;1.17;;;1.00;;
51332;SDS011;37417;48.118;11.734;2022-10-16T04:28:19;0.88;;;0.77;;
51332;SDS011;37417;48.118;11.734;2022-10-16T04:31:05;2.67;;;1.10;;
51332;SDS011;37417;48.118;11.734;2022-10-16T04:33:50;0.80;;;0.80;;
51332;SDS011;37417;48.118;11.734;2022-10-16T04:36:36;1.38;;;1.00;;
51332;SDS011;37417;48.118;11.734;2022-10-16T04:39:21;0.95;;;0.70;;
51332;SDS011;37417;48.118;11.734;2022-10-16T04:42:07;2.75;;;1.00;;
51332;SDS011;37417;48.118;11.734;2022-10-16T04:44:52;2.15;;;0.95;;
51332;SDS011;37417;48.118;11.734;2022-10-16T04:47:38;3.08;;;0.80;;
51332;SDS011;37417;48.118;11.734;2022-10-16T04:50:23;1.52;;;1.20;;
51332;SDS011;37417;48.118;11.734;2022-10-16T04:53:09;1.15;;;0.88;;
51332;SDS011;37417;48.118;11.734;2022-10-16T04:55:55;4.07;;;1.17;;
51332;SDS011;37417;48.118;11.734;2022-10-16T04:58:41;2.90;;;1.05;;
51332;SDS011;37417;48.118;11.734;2022-10-16T05:01:26;4.13;;;1.08;;
51332;SDS011;37417;48.118;11.734;2022-10-16T05:04:12;3.45;;;0.80;;
51332;SDS011;37417;48.118;11.734;2022-10-16T05:06:57;1.98;;;1.05;;
51332;SDS011;37417;48.118;11.734;2022-10-16T05:09:43;1.00;;;0.70;;
51332;SDS011;37417;48.118;11.734;2022-10-16T05:12:28;1.67;;;0.80;;
51332;SDS011;37417;48.118;11.734;2022-10-16T05:15:14;3.45;;;1.13;;
51332;SDS011;37417;48.118;11.734;2022-10-16T05:18:00;0.95;;;0.85;;
51332;SDS011;37417;48.118;11.734;2022-10-16T05:20:45;1.30;;;0.98;;
51332;SDS011;37417;48.118;11.734;2022-10-16T05:23:31;2.17;;;0.90;;
51332;SDS011;37417;48.118;11.734;2022-10-16T05:26:17;1.45;;;1.00;;
51332;SDS011;37417;48.118;11.734;2022-10-16T05:29:03;0.85;;;0.75;;
51332;SDS011;37417;48.118;11.734;2022-10-16T05:31:52;1.38;;;0.93;;
51332;SDS011;37417;48.118;11.734;2022-10-16T05:34:38;1.42;;;1.17;;
51332;SDS011;37417;48.118;11.734;2022-10-16T05:37:23;1.40;;;0.90;;
51332;SDS011;37417;48.118;11.734;2022-10-16T05:40:09;1.70;;;1.25;;
51332;SDS011;37417;48.118;11.734;2022-10-16T05:42:55;4.57;;;1.13;;
51332;SDS011;37417;48.118;11.734;2022-10-16T05:45:41;1.35;;;0.90;;
51332;SDS011;37417;48.118;11.734;2022-10-16T05:48:26;1.98;;;0.82;;
51332;SDS011;37417;48.118;11.734;2022-10-16T05:51:13;2.47;;;1.00;;
51332;SDS011;37417;48.118;11.734;2022-10-16T05:53:59;2.83;;;1.15;;
51332;SDS011;37417;48.118;11.734;2022-10-16T05:56:44;0.70;;;0.60;;
51332;SDS011;37417;48.118;11.734;2022-10-16T05:59:30;1.25;;;0.80;;
51332;SDS011;37417;48.118;11.734;2022-10-16T06:02:15;0.82;;;0.68;;
51332;SDS011;37417;48.118;11.734;2022-10-16T06:05:01;1.35;;;0.90;;
51332;SDS011;37417;48.118;11.734;2022-10-16T06:07:46;2.05;;;1.15;;
51332;SDS011;37417;48.118;11.734;2022-10-16T06:10:32;1.73;;;1.17;;
51332;SDS011;37417;48.118;11.734;2022-10-16T06:13:17;1.05;;;0.95;;
51332;SDS011;37417;48.118;11.734;2022-10-16T06:16:03;1.08;;;0.85;;
51332;SDS011;37417;48.118;11.734;2022-10-16T06:18:52;1.23;;;1.13;;
51332;SDS011;37417;48.118;11.734;2022-10-16T06:21:38;4.78;;;1.20;;
51332;SDS011;37417;48.118;11.734;2022-10-16T06:24:24;1.77;;;0.90;;
51332;SDS011;37417;48.118;11.734;2022-10-16T06:27:10;1.20;;;1.08;;
51332;SDS011;37417;48.118;11.734;2022-10-16T06:29:55;3.15;;;1.00;;
51332;SDS011;37417;48.118;11.734;2022-10-16T06:32:41;3.72;;;0.95;;
51332;SDS011;37417;48.118;11.734;2022-10-16T06:35:26;1.08;;;1.00;;
51332;SDS011;37417;48.118;11.734;2022-10-16T06:38:12;3.20;;;0.93;;
51332;SDS011;37417;48.118;11.734;2022-10-16T06:40:58;1.30;;;1.00;;
51332;SDS011;37417;48.118;11.734;2022-10-16T06:43:44;4.18;;;1.10;;
51332;SDS011;37417;48.118;11.734;2022-10-16T06:46:32;2.90;;;1.38;;
51332;SDS011;37417;48.118;11.734;2022-10-16T06:49:17;1.13;;;0.85;;
51332;SDS011;37417;48.118;11.734;2022-10-16T06:52:07;1.20;;;0.90;;
51332;SDS011;37417;48.118;11.734;2022-10-16T06:54:53;1.30;;;1.10;;
51332;SDS011;37417;48.118;11.734;2022-10-16T06:57:38;1.02;;;0.93;;
51332;SDS011;37417;48.118;11.734;2022-10-16T07:00:24;2.63;;;1.10;;
51332;SDS011;37417;48.118;11.734;2022-10-16T07:03:10;2.88;;;0.93;;
51332;SDS011;37417;48.118;11.734;2022-10-16T07:05:55;1.27;;;1.02;;
51332;SDS011;37417;48.118;11.734;2022-10-16T07:08:42;2.42;;;1.25;;
51332;SDS011;37417;48.118;11.734;2022-10-16T07:11:28;3.60;;;1.13;;
51332;SDS011;37417;48.118;11.734;2022-10-16T07:14:17;1.50;;;1.23;;
51332;SDS011;37417;48.118;11.734;2022-10-16T07:17:03;3.25;;;1.08;;
51332;SDS011;37417;48.118;11.734;2022-10-16T07:19:48;1.42;;;1.33;;
51332;SDS011;37417;48.118;11.734;2022-10-16T07:22:34;2.67;;;1.20;;
51332;SDS011;37417;48.118;11.734;2022-10-16T07:25:20;1.10;;;1.00;;
51332;SDS011;37417;48.118;11.734;2022-10-16T07:28:05;1.17;;;0.93;;
51332;SDS011;37417;48.118;11.734;2022-10-16T07:30:51;1.00;;;0.90;;
51332;SDS011;37417;48.118;11.734;2022-10-16T07:33:37;3.10;;;0.90;;
51332;SDS011;37417;48.118;11.734;2022-10-16T07:36:23;1.23;;;0.95;;
51332;SDS011;37417;48.118;11.734;2022-10-16T07:39:09;1.48;;;0.82;;
51332;SDS011;37417;48.118;11.734;2022-10-16T07:41:54;0.80;;;0.77;;
51332;SDS011;37417;48.118;11.734;2022-10-16T07:44:40;1.70;;;0.90;;
51332;SDS011;37417;48.118;11.734;2022-10-16T07:47:26;2.20;;;0.85;;
51332;SDS011;37417;48.118;11.734;2022-10-16T07:50:11;2.92;;;0.90;;
51332;SDS011;37417;48.118;11.734;2022-10-16T07:52:57;1.75;;;0.90;;
51332;SDS011;37417;48.118;11.734;2022-10-16T07:55:42;0.77;;;0.68;;
51332;SDS011;37417;48.118;11.734;2022-10-16T07:58:28;0.77;;;0.70;;
51332;SDS011;37417;48.118;11.734;2022-10-16T08:01:14;0.90;;;0.80;;
51332;SDS011;37417;48.118;11.734;2022-10-16T08:04:00;1.52;;;0.70;;
51332;SDS011;37417;48.118;11.734;2022-10-16T08:06:46;2.60;;;0.98;;
51332;SDS011;37417;48.118;11.734;2022-10-16T08:09:32;1.67;;;0.82;;
51332;SDS011;37417;48.118;11.734;2022-10-16T08:12:17;1.05;;;0.80;;
51332;SDS011;37417;48.118;11.734;2022-10-16T08:15:03;1.13;;;0.70;;
51332;SDS011;37417;48.118;11.734;2022-10-16T08:17:56;0.55;;;0.55;;
51332;SDS011;37417;48.118;11.734;2022-10-16T08:20:42;0.75;;;0.73;;
51332;SDS011;37417;48.118;11.734;2022-10-16T08:23:27;2.78;;;0.82;;
51332;SDS011;37417;48.118;11.734;2022-10-16T08:26:13;0.60;;;0.55;;
51332;SDS011;37417;48.118;11.734;2022-10-16T08:28:58;0.98;;;0.85;;
51332;SDS011;37417;48.118;11.734;2022-10-16T08:31:44;1.92;;;0.80;;
51332;SDS011;37417;48.118;11.734;2022-10-16T08:34:30;0.90;;;0.70;;
51332;SDS011;37417;48.118;11.734;2022-10-16T08:37:15;3.30;;;0.75;;
51332;SDS011;37417;48.118;11.734;2022-10-16T08:40:01;2.63;;;0.77;;
51332;SDS011;37417;48.118;11.734;2022-10-16T08:48:40;2.03;;;1.00;;
51332;SDS011;37417;48.118;11.734;2022-10-16T08:51:33;1.10;;;0.65;;
51332;SDS011;37417;48.118;11.734;2022-10-16T08:59:58;4.50;;;1.10;;
51332;SDS011;37417;48.118;11.734;2022-10-16T09:02:49;0.95;;;0.65;;
51332;SDS011;37417;48.118;11.734;2022-10-16T09:14:39;2.63;;;0.65;;
51332;SDS011;37417;48.118;11.734;2022-10-16T09:26:03;3.90;;;0.90;;
51332;SDS011;37417;48.118;11.734;2022-10-16T09:28:51;0.77;;;0.77;;
51332;SDS011;37417;48.118;11.734;2022-10-16T09:31:37;4.53;;;0.63;;
51332;SDS011;37417;48.118;11.734;2022-10-16T09:37:12;0.85;;;0.57;;
51332;SDS011;37417;48.118;11.734;2022-10-16T09:39:58;1.33;;;0.70;;
51332;SDS011;37417;48.118;11.734;2022-10-16T09:42:44;1.98;;;0.50;;
51332;SDS011;37417;48.118;11.734;2022-10-16T09:45:29;1.25;;;0.70;;
51332;SDS011;37417;48.118;11.734;2022-10-16T09:48:17;0.90;;;0.50;;
51332;SDS011;37417;48.118;11.734;2022-10-16T09:51:05;1.13;;;0.68;;
51332;SDS011;37417;48.118;11.734;2022-10-16T09:56:52;0.75;;;0.70;;
51332;SDS011;37417;48.118;11.734;2022-10-16T09:59:46;0.50;;;0.50;;
51332;SDS011;37417;48.118;11.734;2022-10-16T10:02:35;1.10;;;0.65;;
51332;SDS011;37417;48.118;11.734;2022-10-16T10:05:22;0.77;;;0.45;;
51332;SDS011;37417;48.118;11.734;2022-10-16T10:08:12;0.60;;;0.55;;
51332;SDS011;37417;48.118;11.734;2022-10-16T10:11:02;2.75;;;0.60;;
51332;SDS011;37417;48.118;11.734;2022-10-16T10:13:47;1.73;;;0.50;;
51332;SDS011;37417;48.118;11.734;2022-10-16T10:16:33;4.50;;;0.65;;
51332;SDS011;37417;48.118;11.734;2022-10-16T10:19:20;0.70;;;0.60;;
51332;SDS011;37417;48.118;11.734;2022-10-16T10:22:16;2.97;;;0.40;;
51332;SDS011;37417;48.118;11.734;2022-10-16T10:30:52;1.38;;;0.77;;
51332;SDS011;37417;48.118;11.734;2022-10-16T10:36:44;0.47;;;0.43;;
51332;SDS011;37417;48.118;11.734;2022-10-16T10:39:39;0.60;;;0.50;;
51332;SDS011;37417;48.118;11.734;2022-10-16T10:42:36;1.75;;;0.50;;
51332;SDS011;37417;48.118;11.734;2022-10-16T10:45:26;0.52;;;0.43;;
51332;SDS011;37417;48.118;11.734;2022-10-16T10:48:34;2.47;;;0.52;;
51332;SDS011;37417;48.118;11.734;2022-10-16T10:51:31;0.68;;;0.50;;
51332;SDS011;37417;48.118;11.734;2022-10-16T10:54:41;1.65;;;0.65;;
51332;SDS011;37417;48.118;11.734;2022-10-16T11:08:51;0.43;;;0.40;;
51332;SDS011;37417;48.118;11.734;2022-10-16T11:11:40;0.70;;;0.32;;
51332;SDS011;37417;48.118;11.734;2022-10-16T11:14:29;1.42;;;0.40;;
51332;SDS011;37417;48.118;11.734;2022-10-16T11:17:18;4.80;;;0.53;;
51332;SDS011;37417;48.118;11.734;2022-10-16T11:20:12;0.20;;;0.20;;
51332;SDS011;37417;48.118;11.734;2022-10-16T11:23:08;0.40;;;0.20;;
51332;SDS011;37417;48.118;11.734;2022-10-16T11:25:57;0.47;;;0.20;;
51332;SDS011;37417;48.118;11.734;2022-10-16T11:28:46;0.82;;;0.30;;
51332;SDS011;37417;48.118;11.734;2022-10-16T11:31:37;0.80;;;0.10;;
51332;SDS011;37417;48.118;11.734;2022-10-16T11:37:11;0.20;;;0.15;;
51332;SDS011;37417;48.118;11.734;2022-10-16T11:40:11;0.10;;;0.10;;
51332;SDS011;37417;48.118;11.734;2022-10-16T11:43:03;0.40;;;0.20;;
51332;SDS011;37417;48.118;11.734;2022-10-16T11:45:51;0.30;;;0.30;;
51332;SDS011;37417;48.118;11.734;2022-10-16T11:51:48;0.43;;;0.22;;
51332;SDS011;37417;48.118;11.734;2022-10-16T11:54:50;1.42;;;0.30;;
51332;SDS011;37417;48.118;11.734;2022-10-16T11:57:48;0.50;;;0.20;;
51332;SDS011;37417;48.118;11.734;2022-10-16T12:03:22;3.58;;;0.35;;
51332;SDS011;37417;48.118;11.734;2022-10-16T12:12:03;0.35;;;0.10;;
51332;SDS011;37417;48.118;11.734;2022-10-16T12:14:59;0.50;;;0.25;;
51332;SDS011;37417;48.118;11.734;2022-10-16T12:17:45;1.35;;;0.50;;
51332;SDS011;37417;48.118;11.734;2022-10-16T12:20:31;2.45;;;0.50;;
51332;SDS011;37417;48.118;11.734;2022-10-16T12:23:19;0.63;;;0.40;;
51332;SDS011;37417;48.118;11.734;2022-10-16T12:26:05;0.22;;;0.15;;
51332;SDS011;37417;48.118;11.734;2022-10-16T12:28:51;0.30;;;0.30;;
51332;SDS011;37417;48.118;11.734;2022-10-16T12:31:37;1.02;;;0.57;;
51332;SDS011;37417;48.118;11.734;2022-10-16T12:40:15;2.03;;;0.40;;
51332;SDS011;37417;48.118;11.734;2022-10-16T12:43:22;0.60;;;0.30;;
51332;SDS011;37417;48.118;11.734;2022-10-16T12:51:59;0.95;;;0.20;;
51332;SDS011;37417;48.118;11.734;2022-10-16T12:54:44;0.25;;;0.10;;
51332;SDS011;37417;48.118;11.734;2022-10-16T13:00:28;0.28;;;0.20;;
51332;SDS011;37417;48.118;11.734;2022-10-16T13:20:46;0.40;;;0.40;;
51332;SDS011;37417;48.118;11.734;2022-10-16T13:23:59;0.47;;;0.43;;
51332;SDS011;37417;48.118;11.734;2022-10-16T13:27:01;0.43;;;0.30;;
51332;SDS011;37417;48.118;11.734;2022-10-16T13:29:53;0.30;;;0.10;;
51332;SDS011;37417;48.118;11.734;2022-10-16T13:32:40;0.20;;;0.20;;
51332;SDS011;37417;48.118;11.734;2022-10-16T13:35:30;0.10;;;0.10;;
51332;SDS011;37417;48.118;11.734;2022-10-16T13:38:17;0.32;;;0.13;;
51332;SDS011;37417;48.118;11.734;2022-10-16T13:41:04;2.55;;;0.30;;
51332;SDS011;37417;48.118;11.734;2022-10-16T13:43:50;3.40;;;0.50;;
51332;SDS011;37417;48.118;11.734;2022-10-16T13:46:37;0.85;;;0.30;;
51332;SDS011;37417;48.118;11.734;2022-10-16T13:49:22;0.20;;;0.20;;
51332;SDS011;37417;48.118;11.734;2022-10-16T13:52:18;0.20;;;0.20;;
51332;SDS011;37417;48.118;11.734;2022-10-16T13:55:14;0.35;;;0.30;;
51332;SDS011;37417;48.118;11.734;2022-10-16T13:58:12;0.50;;;0.50;;
51332;SDS011;37417;48.118;11.734;2022-10-16T14:00:59;0.40;;;0.30;;
51332;SDS011;37417;48.118;11.734;2022-10-16T14:03:46;0.40;;;0.22;;
51332;SDS011;37417;48.118;11.734;2022-10-16T14:06:32;1.80;;;0.22;;
51332;SDS011;37417;48.118;11.734;2022-10-16T14:09:25;0.70;;;0.30;;
51332;SDS011;37417;48.118;11.734;2022-10-16T14:12:11;0.30;;;0.30;;
51332;SDS011;37417;48.118;11.734;2022-10-16T14:14:57;0.43;;;0.30;;
51332;SDS011;37417;48.118;11.734;2022-10-16T14:17:48;1.17;;;0.20;;
51332;SDS011;37417;48.118;11.734;2022-10-16T14:20:35;1.85;;;0.40;;
51332;SDS011;37417;48.118;11.734;2022-10-16T14:23:22;1.27;;;0.40;;
51332;SDS011;37417;48.118;11.734;2022-10-16T14:32:21;0.70;;;0.35;;
51332;SDS011;37417;48.118;11.734;2022-10-16T14:38:17;0.68;;;0.30;;
51332;SDS011;37417;48.118;11.734;2022-10-16T14:41:03;0.28;;;0.20;;
51332;SDS011;37417;48.118;11.734;2022-10-16T14:43:50;1.33;;;0.55;;
51332;SDS011;37417;48.118;11.734;2022-10-16T14:46:38;1.42;;;0.50;;
51332;SDS011;37417;48.118;11.734;2022-10-16T14:49:24;0.65;;;0.28;;
51332;SDS011;37417;48.118;11.734;2022-10-16T14:52:12;3.13;;;0.55;;
51332;SDS011;37417;48.118;11.734;2022-10-16T14:54:58;0.40;;;0.22;;
51332;SDS011;37417;48.118;11.734;2022-10-16T14:57:44;1.58;;;0.40;;
51332;SDS011;37417;48.118;11.734;2022-10-16T15:00:30;0.40;;;0.40;;
51332;SDS011;37417;48.118;11.734;2022-10-16T15:03:15;0.77;;;0.50;;
51332;SDS011;37417;48.118;11.734;2022-10-16T15:06:01;0.47;;;0.38;;
51332;SDS011;37417;48.118;11.734;2022-10-16T15:08:46;5.40;;;0.73;;
51332;SDS011;37417;48.118;11.734;2022-10-16T15:11:33;0.90;;;0.60;;
51332;SDS011;37417;48.118;11.734;2022-10-16T15:14:18;1.00;;;0.77;;
51332;SDS011;37417;48.118;11.734;2022-10-16T15:17:04;1.08;;;0.70;;
51332;SDS011;37417;48.118;11.734;2022-10-16T15:19:49;11.73;;;0.73;;
51332;SDS011;37417;48.118;11.734;2022-10-16T15:22:36;1.00;;;0.65;;
51332;SDS011;37417;48.118;11.734;2022-10-16T15:28:19;2.28;;;0.70;;
51332;SDS011;37417;48.118;11.734;2022-10-16T15:31:05;1.05;;;0.82;;
51332;SDS011;37417;48.118;11.734;2022-10-16T15:33:51;2.75;;;1.38;;
51332;SDS011;37417;48.118;11.734;2022-10-16T15:36:39;2.17;;;1.25;;
51332;SDS011;37417;48.118;11.734;2022-10-16T15:39:25;1.75;;;0.80;;
51332;SDS011;37417;48.118;11.734;2022-10-16T15:42:11;1.50;;;0.90;;
51332;SDS011;37417;48.118;11.734;2022-10-16T15:44:56;1.20;;;0.65;;
51332;SDS011;37417;48.118;11.734;2022-10-16T15:47:42;2.38;;;1.10;;
51332;SDS011;37417;48.118;11.734;2022-10-16T15:50:28;2.67;;;1.58;;
51332;SDS011;37417;48.118;11.734;2022-10-16T15:53:15;3.70;;;2.33;;
51332;SDS011;37417;48.118;11.734;2022-10-16T15:56:04;4.63;;;2.38;;
51332;SDS011;37417;48.118;11.734;2022-10-16T15:58:49;3.25;;;1.55;;
51332;SDS011;37417;48.118;11.734;2022-10-16T16:01:35;2.83;;;1.77;;
51332;SDS011;37417;48.118;11.734;2022-10-16T16:04:21;4.45;;;1.90;;
51332;SDS011;37417;48.118;11.734;2022-10-16T16:07:06;2.08;;;1.35;;
51332;SDS011;37417;48.118;11.734;2022-10-16T16:09:55;4.00;;;1.38;;
51332;SDS011;37417;48.118;11.734;2022-10-16T16:12:41;1.98;;;0.70;;
51332;SDS011;37417;48.118;11.734;2022-10-16T16:15:27;2.75;;;0.90;;
51332;SDS011;37417;48.118;11.734;2022-10-16T16:18:12;1.55;;;1.02;;
51332;SDS011;37417;48.118;11.734;2022-10-16T16:20:58;2.28;;;0.98;;
51332;SDS011;37417;48.118;11.734;2022-10-16T16:23:43;7.63;;;0.95;;
51332;SDS011;37417;48.118;11.734;2022-10-16T16:26:29;1.20;;;0.85;;
51332;SDS011;37417;48.118;11.734;2022-10-16T16:29:20;2.70;;;0.90;;
51332;SDS011;37417;48.118;11.734;2022-10-16T16:32:05;1.48;;;0.98;;
51332;SDS011;37417;48.118;11.734;2022-10-16T16:34:51;1.65;;;0.70;;
51332;SDS011;37417;48.118;11.734;2022-10-16T16:37:36;1.35;;;0.80;;
51332;SDS011;37417;48.118;11.734;2022-10-16T16:40:22;0.68;;;0.68;;
51332;SDS011;37417;48.118;11.734;2022-10-16T16:43:07;2.95;;;0.90;;
51332;SDS011;37417;48.118;11.734;2022-10-16T16:45:53;1.88;;;0.75;;
51332;SDS011;37417;48.118;11.734;2022-10-16T16:48:39;2.92;;;0.80;;
51332;SDS011;37417;48.118;11.734;2022-10-16T16:51:25;0.93;;;0.70;;
51332;SDS011;37417;48.118;11.734;2022-10-16T16:54:10;2.03;;;0.90;;
51332;SDS011;37417;48.118;11.734;2022-10-16T16:56:57;0.90;;;0.63;;
51332;SDS011;37417;48.118;11.734;2022-10-16T16:59:42;2.92;;;0.85;;
51332;SDS011;37417;48.118;11.734;2022-10-16T17:02:28;4.85;;;1.00;;
51332;SDS011;37417;48.118;11.734;2022-10-16T17:05:13;0.80;;;0.73;;
51332;SDS011;37417;48.118;11.734;2022-10-16T17:07:59;1.02;;;0.82;;
51332;SDS011;37417;48.118;11.734;2022-10-16T17:10:44;1.63;;;0.90;;
51332;SDS011;37417;48.118;11.734;2022-10-16T17:13:32;1.73;;;1.17;;
51332;SDS011;37417;48.118;11.734;2022-10-16T17:16:28;3.67;;;0.90;;
51332;SDS011;37417;48.118;11.734;2022-10-16T17:19:15;2.97;;;1.23;;
51332;SDS011;37417;48.118;11.734;2022-10-16T17:22:01;7.68;;;1.38;;
51332;SDS011;37417;48.118;11.734;2022-10-16T17:24:49;4.10;;;1.13;;
51332;SDS011;37417;48.118;11.734;2022-10-16T17:27:36;2.17;;;1.55;;
51332;SDS011;37417;48.118;11.734;2022-10-16T17:30:23;1.80;;;1.25;;
51332;SDS011;37417;48.118;11.734;2022-10-16T17:33:09;4.78;;;1.83;;
51332;SDS011;37417;48.118;11.734;2022-10-16T17:35:55;1.55;;;1.27;;
51332;SDS011;37417;48.118;11.734;2022-10-16T17:38:43;1.48;;;1.35;;
51332;SDS011;37417;48.118;11.734;2022-10-16T17:41:28;2.47;;;1.20;;
51332;SDS011;37417;48.118;11.734;2022-10-16T17:44:14;2.38;;;1.38;;
51332;SDS011;37417;48.118;11.734;2022-10-16T17:47:04;3.33;;;1.40;;
51332;SDS011;37417;48.118;11.734;2022-10-16T17:49:49;1.80;;;1.00;;
51332;SDS011;37417;48.118;11.734;2022-10-16T17:52:35;3.17;;;1.42;;
51332;SDS011;37417;48.118;11.734;2022-10-16T17:55:21;1.65;;;1.33;;
51332;SDS011;37417;48.118;11.734;2022-10-16T17:58:06;1.60;;;1.08;;
51332;SDS011;37417;48.118;11.734;2022-10-16T18:00:52;7.50;;;1.30;;
51332;SDS011;37417;48.118;11.734;2022-10-16T18:03:38;1.80;;;1.63;;
51332;SDS011;37417;48.118;11.734;2022-10-16T18:06:23;1.80;;;1.40;;
51332;SDS011;37417;48.118;11.734;2022-10-16T18:09:10;4.43;;;1.75;;
51332;SDS011;37417;48.118;11.734;2022-10-16T18:11:55;3.42;;;1.63;;
51332;SDS011;37417;48.118;11.734;2022-10-16T18:14:44;5.10;;;1.70;;
51332;SDS011;37417;48.118;11.734;2022-10-16T18:17:30;4.15;;;2.13;;
51332;SDS011;37417;48.118;11.734;2022-10-16T18:20:18;5.40;;;2.13;;
51332;SDS011;37417;48.118;11.734;2022-10-16T18:23:04;4.32;;;1.92;;
51332;SDS011;37417;48.118;11.734;2022-10-16T18:25:50;4.72;;;1.98;;
51332;SDS011;37417;48.118;11.734;2022-10-16T18:28:35;4.18;;;2.13;;